createdAt,value
2019-04-23T00:00:08.851Z,20.04
2019-04-23T00:02:58.876Z,20.01
2019-04-23T00:05:48.047Z,19.99
2019-04-23T00:08:13.410Z,19.87
2019-04-23T00:10:36.665Z,19.79
2019-04-23T00:13:05.815Z,19.82
2019-04-23T00:15:54.810Z,19.82
2019-04-23T00:18:32.163Z,19.82
2019-04-23T00:20:57.872Z,19.77
2019-04-23T00:23:32.760Z,19.74
2019-04-23T00:26:18.867Z,19.68
2019-04-23T00:28:47.910Z,19.63
2019-04-23T00:31:13.654Z,19.58
2019-04-23T00:33:57.733Z,19.52
2019-04-23T00:36:19.449Z,19.46
2019-04-23T00:38:45.476Z,19.45
2019-04-23T00:41:16.419Z,19.40
2019-04-23T00:43:54.727Z,19.31
2019-04-23T00:46:25.200Z,19.25
2019-04-23T00:48:59.088Z,19.26
2019-04-23T00:51:27.050Z,19.33
2019-04-23T00:53:56.731Z,19.39
2019-04-23T00:56:38.703Z,19.43
2019-04-23T00:59:03.984Z,19.47
2019-04-23T01:01:35.833Z,19.49
2019-04-23T01:04:18.565Z,19.52
2019-04-23T01:06:54.557Z,19.59
2019-04-23T01:09:14.134Z,19.62
2019-04-23T01:11:41.895Z,19.65
2019-04-23T01:14:14.856Z,19.74
2019-04-23T01:17:02.649Z,19.80
2019-04-23T01:19:35.212Z,19.83
2019-04-23T01:21:39.513Z,19.84
2019-04-23T01:24:44.640Z,19.83
2019-04-23T01:27:54.810Z,19.80
2019-04-23T01:30:15.896Z,19.78
2019-04-23T01:32:41.053Z,19.79
2019-04-23T01:37:46.531Z,19.80
2019-04-23T01:40:26.870Z,19.83
2019-04-23T01:42:56.152Z,19.83
2019-04-23T01:45:24.558Z,19.86
2019-04-23T01:47:54.771Z,19.92
2019-04-23T01:53:12.329Z,19.96
2019-04-23T01:55:38.413Z,19.97
2019-04-23T01:58:21.916Z,19.96
2019-04-23T02:03:09.446Z,20.03
2019-04-23T02:05:44.852Z,20.02
2019-04-23T02:10:51.391Z,20.07
2019-04-23T02:13:16.509Z,20.06
2019-04-23T02:15:47.402Z,20.05
2019-04-23T02:18:18.289Z,19.98
2019-04-23T02:20:54.602Z,19.94
2019-04-23T02:23:59.685Z,19.96
2019-04-23T02:26:20.055Z,19.99
2019-04-23T02:29:13.306Z,19.96
2019-04-23T02:31:45.091Z,19.89
2019-04-23T02:34:15.044Z,19.82
2019-04-23T02:36:32.533Z,19.78
2019-04-23T02:38:57.980Z,19.75
2019-04-23T02:41:41.496Z,19.75
2019-04-23T02:44:11.538Z,19.77
2019-04-23T02:46:31.305Z,19.82
2019-04-23T02:49:38.187Z,19.82
2019-04-23T02:51:45.518Z,19.79
2019-04-23T02:54:26.600Z,19.74
2019-04-23T02:59:29.080Z,19.55
2019-04-23T03:01:57.928Z,19.49
2019-04-23T03:04:28.659Z,19.36
2019-04-23T03:06:55.595Z,19.33
2019-04-23T03:12:09.789Z,19.43
2019-04-23T03:14:33.409Z,19.47
2019-04-23T03:17:02.976Z,19.43
2019-04-23T03:20:08.010Z,19.37
2019-04-23T03:25:35.642Z,19.20
2019-04-23T03:28:25.140Z,19.14
2019-04-23T03:32:01.784Z,19.09
2019-04-23T03:33:55.462Z,19.09
2019-04-23T03:38:37.534Z,19.08
2019-04-23T03:40:57.118Z,19.03
2019-04-23T03:46:12.285Z,19.15
2019-04-23T03:48:33.992Z,19.15
2019-04-23T03:50:52.260Z,19.15
2019-04-23T03:53:43.160Z,19.24
2019-04-23T03:58:42.581Z,19.31
2019-04-23T04:01:11.950Z,19.32
2019-04-23T04:06:23.531Z,19.29
2019-04-23T04:08:55.961Z,19.34
2019-04-23T04:13:53.234Z,19.20
2019-04-23T04:16:18.230Z,19.19
2019-04-23T04:21:27.255Z,19.02
2019-04-23T04:24:01.698Z,18.94
2019-04-23T04:31:41.548Z,18.67
2019-04-23T04:34:11.741Z,18.62
2019-04-23T04:37:11.723Z,18.61
2019-04-23T04:39:19.469Z,18.64
2019-04-23T04:41:40.506Z,18.63
2019-04-23T04:44:26.839Z,18.69
2019-04-23T04:46:45.841Z,18.61
2019-04-23T04:49:15.082Z,18.58
2019-04-23T04:54:17.662Z,18.75
2019-04-23T04:56:47.231Z,18.81
2019-04-23T04:59:13.322Z,18.87
2019-04-23T05:07:02.486Z,18.95
2019-04-23T05:09:29.281Z,18.91
2019-04-23T05:16:56.751Z,18.64
2019-04-23T05:24:35.229Z,18.76
2019-04-23T05:27:04.546Z,18.78
2019-04-23T05:29:42.817Z,18.81
2019-04-23T05:32:10.116Z,18.74
2019-04-23T05:34:40.088Z,18.70
2019-04-23T05:37:15.978Z,18.54
2019-04-23T05:42:33.156Z,18.48
2019-04-23T05:44:52.530Z,18.42
2019-04-23T05:47:23.089Z,18.43
2019-04-23T05:49:54.727Z,18.53
2019-04-23T05:52:24.019Z,18.60
2019-04-23T05:54:56.352Z,18.64
2019-04-23T05:57:33.295Z,18.62
2019-04-23T05:59:56.919Z,18.50
2019-04-23T06:02:37.275Z,18.53
2019-04-23T06:05:03.824Z,18.51
2019-04-23T06:07:38.951Z,18.58
2019-04-23T06:10:06.455Z,18.66
2019-04-23T06:12:37.041Z,18.73
2019-04-23T06:15:11.554Z,18.85
2019-04-23T06:17:38.155Z,18.95
2019-04-23T06:20:16.482Z,19.06
2019-04-23T06:25:35.757Z,19.15
2019-04-23T06:30:31.227Z,19.19
2019-04-23T06:32:51.454Z,19.26
2019-04-23T06:35:22.532Z,19.31
2019-04-23T06:38:24.172Z,19.34
2019-04-23T06:40:26.659Z,19.38
2019-04-23T06:43:05.341Z,19.44
2019-04-23T06:45:35.554Z,19.51
2019-04-23T06:48:15.451Z,19.59
2019-04-23T06:50:43.399Z,19.63
2019-04-23T06:53:04.342Z,19.73
2019-04-23T06:55:42.533Z,19.80
2019-04-23T06:58:24.043Z,19.89
2019-04-23T07:00:51.257Z,19.97
2019-04-23T07:03:25.943Z,20.05
2019-04-23T07:13:57.725Z,20.38
2019-04-23T07:16:16.040Z,20.46
2019-04-23T07:18:48.897Z,20.54
2019-04-23T07:21:23.562Z,20.65
2019-04-23T07:29:00.016Z,20.93
2019-04-23T07:34:01.282Z,21.04
2019-04-23T07:39:11.665Z,21.14
2019-04-23T07:42:03.597Z,21.18
2019-04-23T07:44:42.363Z,21.22
2019-04-23T07:47:53.759Z,21.29
2019-04-23T07:50:15.888Z,21.30
2019-04-23T07:52:41.485Z,21.40
2019-04-23T07:55:23.635Z,21.45
2019-04-23T07:57:44.295Z,21.48
2019-04-23T08:00:24.106Z,21.50
2019-04-23T08:02:49.955Z,21.53
2019-04-23T08:07:54.143Z,21.56
2019-04-23T08:10:22.797Z,21.61
2019-04-23T08:12:52.755Z,21.69
2019-04-23T08:15:30.954Z,21.81
2019-04-23T08:17:58.660Z,21.86
2019-04-23T08:20:29.960Z,21.96
2019-04-23T08:23:05.942Z,22.07
2019-04-23T08:26:13.624Z,22.18
2019-04-23T08:28:41.971Z,22.31
2019-04-23T08:31:07.829Z,22.44
2019-04-23T08:33:44.795Z,22.57
2019-04-23T08:36:18.200Z,22.66
2019-04-23T08:38:58.285Z,22.74
2019-04-23T08:43:46.624Z,22.81
2019-04-23T08:49:25.760Z,22.83
2019-04-23T08:51:53.368Z,22.91
2019-04-23T08:54:39.235Z,22.96
2019-04-23T08:57:04.089Z,23.01
2019-04-23T09:02:18.930Z,23.11
2019-04-23T09:04:43.631Z,23.18
2019-04-23T09:07:12.891Z,23.23
2019-04-23T09:09:43.802Z,23.32
2019-04-23T09:12:14.748Z,23.38
2019-04-23T09:14:38.120Z,23.46
2019-04-23T09:17:27.704Z,23.53
2019-04-23T09:22:25.147Z,23.63
2019-04-23T09:24:46.872Z,23.65
2019-04-23T09:27:31.660Z,23.72
2019-04-23T09:30:06.889Z,23.79
2019-04-23T09:32:24.819Z,23.87
2019-04-23T09:35:27.484Z,23.94
2019-04-23T09:44:14.413Z,24.13
2019-04-23T09:46:47.293Z,24.18
2019-04-23T09:49:20.654Z,24.17
2019-04-23T09:51:55.547Z,24.24
2019-04-23T09:54:18.478Z,24.29
2019-04-23T09:56:47.787Z,24.33
2019-04-23T10:01:45.494Z,24.43
2019-04-23T10:04:12.542Z,24.56
2019-04-23T10:06:34.475Z,24.69
2019-04-23T10:09:06.171Z,24.73
2019-04-23T10:11:34.864Z,24.80
2019-04-23T10:14:06.240Z,24.77
2019-04-23T10:16:36.932Z,24.81
2019-04-23T10:19:08.029Z,24.85
2019-04-23T10:21:39.442Z,24.92
2019-04-23T10:24:09.684Z,24.98
2019-04-23T10:26:39.986Z,25.03
2019-04-23T10:29:18.147Z,25.11
2019-04-23T10:31:49.369Z,25.16
2019-04-23T10:34:21.031Z,25.20
2019-04-23T10:36:51.582Z,25.22
2019-04-23T10:39:26.280Z,25.25
2019-04-23T10:41:56.994Z,25.29
2019-04-23T10:44:52.095Z,25.26
2019-04-23T10:48:30.920Z,25.31
2019-04-23T10:53:30.008Z,25.45
2019-04-23T10:56:20.044Z,25.57
2019-04-23T10:58:34.928Z,25.74
2019-04-23T11:01:06.326Z,25.83
2019-04-23T11:03:48.691Z,25.88
2019-04-23T11:06:17.752Z,25.91
2019-04-23T11:08:40.592Z,25.96
2019-04-23T11:11:16.616Z,26.03
2019-04-23T11:13:48.818Z,26.07
2019-04-23T11:19:11.294Z,26.12
2019-04-23T11:21:29.883Z,26.15
2019-04-23T11:24:02.536Z,26.13
2019-04-23T11:29:07.459Z,26.24
2019-04-23T11:31:39.253Z,26.36
2019-04-23T11:39:05.527Z,26.42
2019-04-23T11:41:45.686Z,26.46
2019-04-23T11:44:18.985Z,26.51
2019-04-23T11:46:53.978Z,26.59
2019-04-23T11:49:29.541Z,26.57
2019-04-23T11:51:54.720Z,26.51
2019-04-23T11:54:21.352Z,26.44
2019-04-23T11:59:31.821Z,26.36
2019-04-23T12:02:23.399Z,26.31
2019-04-23T12:05:24.753Z,26.25
2019-04-23T12:07:52.336Z,26.13
2019-04-23T12:13:03.865Z,26.05
2019-04-23T12:15:32.841Z,26.04
2019-04-23T12:18:15.048Z,26.11
2019-04-23T12:20:39.812Z,26.15
2019-04-23T12:25:51.552Z,26.36
2019-04-23T12:28:14.087Z,26.52
2019-04-23T12:30:45.431Z,26.69
2019-04-23T12:33:20.751Z,26.82
2019-04-23T12:35:41.711Z,26.98
2019-04-23T12:38:19.242Z,27.06
2019-04-23T12:41:10.619Z,27.11
2019-04-23T12:43:20.695Z,27.13
2019-04-23T12:45:46.856Z,27.20
2019-04-23T12:51:17.443Z,27.16
2019-04-23T12:56:03.734Z,26.85
2019-04-23T12:58:41.677Z,26.72
2019-04-23T13:01:10.823Z,26.52
2019-04-23T13:03:32.946Z,26.40
2019-04-23T13:06:11.167Z,26.25
2019-04-23T13:08:44.231Z,26.19
2019-04-23T13:11:14.088Z,26.13
2019-04-23T13:13:48.377Z,26.10
2019-04-23T13:16:22.169Z,26.09
2019-04-23T13:18:49.740Z,26.07
2019-04-23T13:21:45.288Z,26.06
2019-04-23T13:23:55.602Z,26.07
2019-04-23T13:26:30.732Z,26.04
2019-04-23T13:29:16.122Z,26.03
2019-04-23T13:31:34.694Z,26.07
2019-04-23T13:34:16.281Z,26.09
2019-04-23T13:39:21.195Z,26.20
2019-04-23T13:41:47.864Z,26.27
2019-04-23T13:44:19.319Z,26.27
2019-04-23T13:46:52.585Z,26.27
2019-04-23T13:49:28.382Z,26.36
2019-04-23T13:51:58.785Z,26.39
2019-04-23T13:54:50.221Z,26.42
2019-04-23T13:57:36.497Z,26.36
2019-04-23T13:59:38.930Z,26.32
2019-04-23T14:02:03.281Z,26.28
2019-04-23T14:07:34.633Z,26.21
2019-04-23T14:10:07.228Z,26.18
2019-04-23T14:12:31.974Z,26.12
2019-04-23T14:15:24.191Z,26.10
2019-04-23T14:20:08.695Z,25.98
2019-04-23T14:25:10.021Z,25.92
2019-04-23T14:27:51.399Z,25.86
2019-04-23T14:32:47.020Z,25.74
2019-04-23T14:38:02.380Z,25.57
2019-04-23T14:40:26.549Z,25.54
2019-04-23T14:43:04.342Z,25.51
2019-04-23T14:46:25.122Z,25.51
2019-04-23T14:48:10.370Z,25.47
2019-04-23T14:53:12.128Z,25.49
2019-04-23T14:55:49.008Z,25.44
2019-04-23T14:58:20.330Z,25.46
2019-04-23T15:00:54.120Z,25.46
2019-04-23T15:03:24.938Z,25.46
2019-04-23T15:05:59.709Z,25.44
2019-04-23T15:08:25.161Z,25.43
2019-04-23T15:11:06.535Z,25.43
2019-04-23T15:13:22.711Z,25.39
2019-04-23T15:16:02.892Z,25.36
2019-04-23T15:19:07.952Z,25.27
2019-04-23T15:28:41.217Z,25.10
2019-04-23T15:31:33.040Z,25.07
2019-04-23T15:34:10.780Z,25.04
2019-04-23T15:36:50.814Z,25.04
2019-04-23T15:39:26.805Z,24.99
2019-04-23T15:46:47.140Z,24.94
2019-04-23T15:54:19.530Z,24.85
2019-04-23T15:56:54.807Z,24.82
2019-04-23T15:59:28.994Z,24.80
2019-04-23T16:01:43.573Z,24.82
2019-04-23T16:03:57.601Z,24.80
2019-04-23T16:06:30.916Z,24.78
2019-04-23T16:09:17.898Z,24.77
2019-04-23T16:11:51.780Z,24.74
2019-04-23T16:14:35.804Z,24.72
2019-04-23T16:17:09.893Z,24.70
2019-04-23T16:20:09.266Z,24.67
2019-04-23T16:22:24.904Z,24.63
2019-04-23T16:25:00.917Z,24.62
2019-04-23T16:27:19.631Z,24.58
2019-04-23T16:30:12.845Z,24.56
2019-04-23T16:32:57.770Z,24.53
2019-04-23T16:38:07.736Z,24.50
2019-04-23T16:43:03.540Z,24.40
2019-04-23T16:48:17.207Z,24.33
2019-04-23T16:50:43.922Z,24.27
2019-04-23T16:53:21.520Z,24.28
2019-04-23T16:55:38.381Z,24.24
2019-04-23T16:58:21.863Z,24.17
2019-04-23T17:00:51.593Z,24.11
2019-04-23T17:05:50.707Z,24.17
2019-04-23T17:13:24.080Z,24.12
2019-04-23T17:15:58.690Z,24.05
2019-04-23T17:20:58.355Z,24.08
2019-04-23T17:23:38.867Z,24.04
2019-04-23T17:26:04.207Z,24.04
2019-04-23T17:28:56.252Z,24.06
2019-04-23T17:31:26.593Z,24.04
2019-04-23T17:33:43.468Z,24.01
2019-04-23T17:39:06.797Z,23.93
2019-04-23T17:41:50.091Z,23.88
2019-04-23T17:46:54.190Z,23.88
2019-04-23T17:49:24.872Z,23.87
2019-04-23T17:51:59.192Z,23.84
2019-04-23T17:54:24.766Z,23.81
2019-04-23T18:05:02.821Z,23.72
2019-04-23T18:07:38.387Z,23.69
2019-04-23T18:10:09.815Z,23.67
2019-04-23T18:12:40.541Z,23.63
2019-04-23T18:17:35.470Z,23.61
2019-04-23T18:20:16.305Z,23.60
2019-04-23T18:22:56.857Z,23.59
2019-04-23T18:25:45.746Z,23.56
2019-04-23T18:28:08.458Z,23.52
2019-04-23T18:31:11.256Z,23.51
2019-04-23T18:34:03.734Z,23.54
2019-04-23T18:36:19.723Z,23.52
2019-04-23T18:39:08.550Z,23.49
2019-04-23T18:41:29.064Z,23.41
2019-04-23T18:44:06.978Z,23.42
2019-04-23T18:46:36.732Z,23.46
2019-04-23T18:48:58.187Z,23.47
2019-04-23T18:51:38.396Z,23.50
2019-04-23T18:54:03.085Z,23.48
2019-04-23T18:59:10.706Z,23.45
2019-04-23T19:02:17.322Z,23.38
2019-04-23T19:05:03.815Z,23.31
2019-04-23T19:07:42.972Z,23.25
2019-04-23T19:10:29.190Z,23.29
2019-04-23T19:13:28.698Z,23.23
2019-04-23T19:15:37.997Z,23.17
2019-04-23T19:18:14.245Z,23.14
2019-04-23T19:20:55.787Z,23.13
2019-04-23T19:25:46.800Z,23.08
2019-04-23T19:28:34.555Z,23.06
2019-04-23T19:31:26.102Z,23.05
2019-04-23T19:36:49.284Z,23.00
2019-04-23T19:39:21.435Z,22.92
2019-04-23T19:44:22.205Z,22.79
2019-04-23T19:46:54.592Z,22.79
2019-04-23T19:51:53.217Z,22.66
2019-04-23T19:59:41.025Z,22.55
2019-04-23T20:02:00.165Z,22.54
2019-04-23T20:04:39.333Z,22.53
2019-04-23T20:09:43.169Z,22.44
2019-04-23T20:12:06.253Z,22.43
2019-04-23T20:14:49.754Z,22.37
2019-04-23T20:19:44.207Z,22.34
2019-04-23T20:22:26.116Z,22.31
2019-04-23T20:24:57.629Z,22.31
2019-04-23T20:27:35.135Z,22.33
2019-04-23T20:30:33.888Z,22.33
2019-04-23T20:35:21.558Z,22.19
2019-04-23T20:40:31.231Z,22.22
2019-04-23T20:42:53.496Z,22.17
2019-04-23T20:45:27.381Z,22.11
2019-04-23T20:47:57.780Z,22.07
2019-04-23T20:50:34.493Z,22.05
2019-04-23T20:52:57.472Z,22.01
2019-04-23T20:55:54.611Z,22.00
2019-04-23T20:58:20.930Z,21.98
2019-04-23T21:01:27.380Z,21.92
2019-04-23T21:06:30.086Z,21.78
2019-04-23T21:11:24.166Z,21.78
2019-04-23T21:16:36.266Z,21.72
2019-04-23T21:18:54.997Z,21.69
2019-04-23T21:21:39.746Z,21.68
2019-04-23T21:24:01.332Z,21.68
2019-04-23T21:26:46.066Z,21.56
2019-04-23T21:29:04.055Z,21.57
2019-04-23T21:31:48.447Z,21.49
2019-04-23T21:34:21.098Z,21.49
2019-04-23T21:36:48.208Z,21.36
2019-04-23T21:39:38.524Z,21.30
2019-04-23T21:42:21.034Z,21.22
2019-04-23T21:44:55.648Z,21.14
2019-04-23T21:47:25.531Z,21.09
2019-04-23T21:50:10.694Z,21.12
2019-04-23T21:52:49.009Z,21.17
2019-04-23T21:57:46.339Z,21.16
2019-04-23T21:59:59.303Z,21.12
2019-04-23T22:02:50.519Z,21.15
2019-04-23T22:05:09.430Z,21.18
2019-04-23T22:07:51.766Z,21.21
2019-04-23T22:10:11.674Z,21.17
2019-04-23T22:13:02.197Z,21.23
2019-04-23T22:15:13.041Z,21.26
2019-04-23T22:20:25.501Z,21.27
2019-04-23T22:25:21.886Z,21.09
2019-04-23T22:28:10.143Z,20.92
2019-04-23T22:30:30.688Z,20.80
2019-04-23T22:33:02.605Z,20.81
2019-04-23T22:35:35.124Z,20.73
2019-04-23T22:38:15.826Z,20.57
2019-04-23T22:40:34.874Z,20.45
2019-04-23T22:43:25.268Z,20.40
2019-04-23T22:45:43.200Z,20.42
2019-04-23T22:48:17.955Z,20.45
2019-04-23T22:50:59.226Z,20.54
2019-04-23T22:55:57.364Z,20.45
2019-04-23T22:58:36.894Z,20.38
2019-04-23T23:03:44.141Z,20.40
2019-04-23T23:09:02.617Z,20.37
2019-04-23T23:11:13.655Z,20.35
2019-04-23T23:14:09.729Z,20.30
2019-04-23T23:16:21.353Z,20.28
2019-04-23T23:19:05.098Z,20.31
2019-04-23T23:21:38.139Z,20.39
2019-04-23T23:23:59.625Z,20.46
2019-04-23T23:26:31.723Z,20.46
2019-04-23T23:29:00.684Z,20.40
2019-04-23T23:31:38.080Z,20.25
2019-04-23T23:34:09.847Z,20.17
2019-04-23T23:36:46.879Z,20.04
2019-04-23T23:39:16.226Z,19.96
2019-04-23T23:41:48.900Z,19.87
2019-04-23T23:49:22.145Z,20.04
2019-04-23T23:51:49.573Z,20.13
2019-04-23T23:57:11.193Z,20.17
2019-04-23T23:59:48.160Z,20.08
